ENGM Airport Information

Runway Information
Runway 01L Length 11811 ft width 148 ft
Elevation 656 ft Threshold 0 ft Heading 16
Runway 19R Length 11811 ft Width 148 ft
Elevation 675 ft Threshold 0 ft Heading 196
Runway 01R Length 9678 ft width 148 ft
Elevation 670 ft Threshold 0 ft Heading 16
Runway 19L Length 9678 ft Width 148 ft
Elevation 681 ft Threshold 0 ft Heading 196
Airport Frequencies
Type APP Name APP Frequency 119.975 MHZ
Type ATIS Name ATIS Frequency 126.125 MHZ
Type CLD Name CLNC DEL Frequency 121.6 MHZ
Type DIR Name DIRECTOR Frequency 131.35 MHZ
Type GND Name GND Frequency 121.925 MHZ
Type MISC Name DE ICING Frequency 131.975 MHZ
Type OPS Name WINGOPS Frequency 29.38 MHZ
Type PMSV Name PMSV METRO Frequency 134.175 MHZ
Type TWR Name TWR Frequency 118.3 MHZ
Airport Navaids
Type NDB Name Bergerud Frequency 316 KHZ
Type VOR-DME Name Gardermoen Frequency 115950 KHZ
Type NDB Name Oppaker Frequency 334 KHZ
Type NDB Name Solberg Frequency 414 KHZ
Type NDB Name Soknen Frequency 387 KHZ
Airport Weather Information & NOTAM
ADDS - METARS form results

(2026 UTC 23 September 2018)
Data provider http://aviationweather.gov/metar/data/
 
METAR text: ENGM 232020Z 30005KT 270V330 CAVOK 05/M01 Q1006 NOSIG
Conditions at: ENGM (OSLO/GARDERMOEN , NO) observed 2020 UTC 23 September 2018
Temperature: 5.0°C (41°F)
Dewpoint: -1.0°C (30°F) [RH = 65%]
Pressure (altimeter): 29.70 inches Hg (1006.0 mb)
Winds: from the WNW (300 degrees) at 6 MPH (5 knots; 2.6 m/s)
Visibility: 6 or more miles (10+ km)
Ceiling: ceiling and visibility are OK
Clouds: unknown
Weather: no significant weather observed at this time

METAR text: ENGM 231950Z 30005KT 260V360 CAVOK 06/M01 Q1005 NOSIG
Conditions at: ENGM (OSLO/GARDERMOEN , NO) observed 1950 UTC 23 September 2018
Temperature: 6.0°C (43°F)
Dewpoint: -1.0°C (30°F) [RH = 61%]
Pressure (altimeter): 29.68 inches Hg (1005.0 mb)
Winds: from the WNW (300 degrees) at 6 MPH (5 knots; 2.6 m/s)
Visibility: 6 or more miles (10+ km)
Ceiling: ceiling and visibility are OK
Clouds: unknown
Weather: no significant weather observed at this time

Forecast for: ENGM (OSLO/GARDERMOEN , NO)
Text: TAF ENGM 2318/2418 34008KT CAVOK
Forecast period: 1800 UTC 23 September 2018 to 1800 UTC 24 September 2018
Forecast type: FROM: standard forecast or significant change
Winds: from the NNW (340 degrees) at 9 MPH (8 knots; 4.1 m/s)
Visibility: 6 or more miles 10+ km)
Ceiling: unknown
Clouds: missing
Weather: NSW  (no significant weather)
Text: PROB30
Forecast period: 0900 to 1500 UTC 24 September 2018
Forecast type: TEMPORARY: The following changes expected for less than half the time period
Winds: from the NW (320 degrees) at 17 MPH (15 knots; 7.7 m/s)
gusting to 29 MPH (25 knots; 12.9 m/s)
Visibility: missing
Ceiling: unknown
Clouds: missing
Weather: no significant weather forecast for this period